sensor_id;sensor_type;location;lat;lon;timestamp;P1;durP1;ratioP1;P2;durP2;ratioP2
15624;SDS011;7912;51.376;6.126;2022-11-20T00:01:32;16.53;;;12.83;;
15624;SDS011;7912;51.376;6.126;2022-11-20T00:04:00;14.63;;;11.80;;
15624;SDS011;7912;51.376;6.126;2022-11-20T00:06:28;15.53;;;12.63;;
15624;SDS011;7912;51.376;6.126;2022-11-20T00:08:57;14.07;;;11.30;;
15624;SDS011;7912;51.376;6.126;2022-11-20T00:11:28;15.00;;;12.37;;
15624;SDS011;7912;51.376;6.126;2022-11-20T00:13:58;14.73;;;11.93;;
15624;SDS011;7912;51.376;6.126;2022-11-20T00:16:28;16.83;;;12.67;;
15624;SDS011;7912;51.376;6.126;2022-11-20T00:18:59;15.57;;;12.93;;
15624;SDS011;7912;51.376;6.126;2022-11-20T00:21:26;14.27;;;12.23;;
15624;SDS011;7912;51.376;6.126;2022-11-20T00:23:55;16.17;;;13.30;;
15624;SDS011;7912;51.376;6.126;2022-11-20T00:26:24;15.00;;;12.27;;
15624;SDS011;7912;51.376;6.126;2022-11-20T00:28:55;15.50;;;12.47;;
15624;SDS011;7912;51.376;6.126;2022-11-20T00:31:27;14.73;;;11.77;;
15624;SDS011;7912;51.376;6.126;2022-11-20T00:33:56;15.47;;;12.13;;
15624;SDS011;7912;51.376;6.126;2022-11-20T00:36:24;15.17;;;12.83;;
15624;SDS011;7912;51.376;6.126;2022-11-20T00:38:58;13.40;;;11.90;;
15624;SDS011;7912;51.376;6.126;2022-11-20T00:41:28;14.57;;;12.07;;
15624;SDS011;7912;51.376;6.126;2022-11-20T00:43:56;13.73;;;11.60;;
15624;SDS011;7912;51.376;6.126;2022-11-20T00:46:28;14.50;;;12.10;;
15624;SDS011;7912;51.376;6.126;2022-11-20T00:48:56;14.47;;;12.30;;
15624;SDS011;7912;51.376;6.126;2022-11-20T00:51:26;14.77;;;11.83;;
15624;SDS011;7912;51.376;6.126;2022-11-20T00:53:55;15.30;;;12.27;;
15624;SDS011;7912;51.376;6.126;2022-11-20T00:56:26;12.80;;;11.40;;
15624;SDS011;7912;51.376;6.126;2022-11-20T00:58:59;15.80;;;12.77;;
15624;SDS011;7912;51.376;6.126;2022-11-20T01:01:33;15.80;;;12.40;;
15624;SDS011;7912;51.376;6.126;2022-11-20T01:04:03;15.23;;;12.63;;
15624;SDS011;7912;51.376;6.126;2022-11-20T01:06:35;14.93;;;12.33;;
15624;SDS011;7912;51.376;6.126;2022-11-20T01:09:10;15.57;;;11.93;;
15624;SDS011;7912;51.376;6.126;2022-11-20T01:11:43;15.83;;;12.70;;
15624;SDS011;7912;51.376;6.126;2022-11-20T01:14:15;14.27;;;12.23;;
15624;SDS011;7912;51.376;6.126;2022-11-20T01:16:50;14.73;;;12.63;;
15624;SDS011;7912;51.376;6.126;2022-11-20T01:19:19;13.60;;;12.03;;
15624;SDS011;7912;51.376;6.126;2022-11-20T01:21:51;14.50;;;12.20;;
15624;SDS011;7912;51.376;6.126;2022-11-20T01:24:21;15.17;;;12.47;;
15624;SDS011;7912;51.376;6.126;2022-11-20T01:26:51;15.13;;;11.90;;
15624;SDS011;7912;51.376;6.126;2022-11-20T01:29:20;14.67;;;11.83;;
15624;SDS011;7912;51.376;6.126;2022-11-20T01:31:51;14.53;;;12.23;;
15624;SDS011;7912;51.376;6.126;2022-11-20T01:34:20;13.83;;;11.57;;
15624;SDS011;7912;51.376;6.126;2022-11-20T01:36:49;13.60;;;11.30;;
15624;SDS011;7912;51.376;6.126;2022-11-20T01:39:20;13.10;;;11.20;;
15624;SDS011;7912;51.376;6.126;2022-11-20T01:41:51;15.00;;;12.27;;
15624;SDS011;7912;51.376;6.126;2022-11-20T01:44:50;12.90;;;10.10;;
15624;SDS011;7912;51.376;6.126;2022-11-20T01:47:35;12.57;;;10.80;;
15624;SDS011;7912;51.376;6.126;2022-11-20T01:50:23;11.90;;;10.57;;
15624;SDS011;7912;51.376;6.126;2022-11-20T01:52:59;13.33;;;11.20;;
15624;SDS011;7912;51.376;6.126;2022-11-20T01:55:34;14.67;;;10.87;;
15624;SDS011;7912;51.376;6.126;2022-11-20T01:58:07;12.53;;;10.37;;
15624;SDS011;7912;51.376;6.126;2022-11-20T02:00:35;15.57;;;11.23;;
15624;SDS011;7912;51.376;6.126;2022-11-20T02:03:12;13.70;;;10.57;;
15624;SDS011;7912;51.376;6.126;2022-11-20T02:06:04;11.93;;;9.77;;
15624;SDS011;7912;51.376;6.126;2022-11-20T02:08:45;13.10;;;10.33;;
15624;SDS011;7912;51.376;6.126;2022-11-20T02:11:12;15.17;;;11.53;;
15624;SDS011;7912;51.376;6.126;2022-11-20T02:13:41;14.87;;;11.53;;
15624;SDS011;7912;51.376;6.126;2022-11-20T02:18:50;11.87;;;10.13;;
15624;SDS011;7912;51.376;6.126;2022-11-20T02:24:24;13.27;;;10.83;;
15624;SDS011;7912;51.376;6.126;2022-11-20T02:29:36;13.53;;;10.83;;
15624;SDS011;7912;51.376;6.126;2022-11-20T02:32:29;12.53;;;10.60;;
15624;SDS011;7912;51.376;6.126;2022-11-20T02:35:07;12.93;;;10.20;;
15624;SDS011;7912;51.376;6.126;2022-11-20T02:37:56;12.53;;;10.33;;
15624;SDS011;7912;51.376;6.126;2022-11-20T02:40:27;13.17;;;11.00;;
15624;SDS011;7912;51.376;6.126;2022-11-20T02:42:57;13.63;;;11.60;;
15624;SDS011;7912;51.376;6.126;2022-11-20T02:45:25;14.10;;;11.37;;
15624;SDS011;7912;51.376;6.126;2022-11-20T02:48:01;13.60;;;11.40;;
15624;SDS011;7912;51.376;6.126;2022-11-20T02:50:29;13.93;;;11.53;;
15624;SDS011;7912;51.376;6.126;2022-11-20T02:52:56;13.40;;;11.03;;
15624;SDS011;7912;51.376;6.126;2022-11-20T02:55:23;14.67;;;11.47;;
15624;SDS011;7912;51.376;6.126;2022-11-20T02:57:50;14.40;;;11.57;;
15624;SDS011;7912;51.376;6.126;2022-11-20T03:00:18;14.87;;;11.80;;
15624;SDS011;7912;51.376;6.126;2022-11-20T03:02:48;14.90;;;11.87;;
15624;SDS011;7912;51.376;6.126;2022-11-20T03:05:15;14.33;;;12.07;;
15624;SDS011;7912;51.376;6.126;2022-11-20T03:10:47;14.47;;;11.83;;
15624;SDS011;7912;51.376;6.126;2022-11-20T03:13:14;15.47;;;11.43;;
15624;SDS011;7912;51.376;6.126;2022-11-20T03:15:44;13.70;;;11.47;;
15624;SDS011;7912;51.376;6.126;2022-11-20T03:18:11;13.37;;;11.43;;
15624;SDS011;7912;51.376;6.126;2022-11-20T03:20:40;13.70;;;11.77;;
15624;SDS011;7912;51.376;6.126;2022-11-20T03:23:07;14.03;;;11.67;;
15624;SDS011;7912;51.376;6.126;2022-11-20T03:25:34;13.73;;;11.40;;
15624;SDS011;7912;51.376;6.126;2022-11-20T03:28:01;13.33;;;10.87;;
15624;SDS011;7912;51.376;6.126;2022-11-20T03:30:28;13.07;;;11.33;;
15624;SDS011;7912;51.376;6.126;2022-11-20T03:32:56;15.83;;;11.57;;
15624;SDS011;7912;51.376;6.126;2022-11-20T03:35:26;13.33;;;10.80;;
15624;SDS011;7912;51.376;6.126;2022-11-20T03:37:53;13.07;;;10.80;;
15624;SDS011;7912;51.376;6.126;2022-11-20T03:40:22;12.57;;;11.20;;
15624;SDS011;7912;51.376;6.126;2022-11-20T03:42:49;14.63;;;11.03;;
15624;SDS011;7912;51.376;6.126;2022-11-20T03:45:17;13.13;;;11.30;;
15624;SDS011;7912;51.376;6.126;2022-11-20T03:47:45;12.87;;;10.57;;
15624;SDS011;7912;51.376;6.126;2022-11-20T03:50:13;12.40;;;10.43;;
15624;SDS011;7912;51.376;6.126;2022-11-20T03:52:40;12.97;;;10.97;;
15624;SDS011;7912;51.376;6.126;2022-11-20T03:55:08;12.60;;;10.60;;
15624;SDS011;7912;51.376;6.126;2022-11-20T03:57:35;13.97;;;11.80;;
15624;SDS011;7912;51.376;6.126;2022-11-20T04:00:03;12.07;;;10.33;;
15624;SDS011;7912;51.376;6.126;2022-11-20T04:02:32;12.03;;;10.67;;
15624;SDS011;7912;51.376;6.126;2022-11-20T04:04:59;14.20;;;11.60;;
15624;SDS011;7912;51.376;6.126;2022-11-20T04:07:29;13.63;;;11.37;;
15624;SDS011;7912;51.376;6.126;2022-11-20T04:09:56;12.60;;;10.77;;
15624;SDS011;7912;51.376;6.126;2022-11-20T04:12:24;13.97;;;11.93;;
15624;SDS011;7912;51.376;6.126;2022-11-20T04:14:53;14.40;;;11.57;;
15624;SDS011;7912;51.376;6.126;2022-11-20T04:17:20;13.67;;;11.57;;
15624;SDS011;7912;51.376;6.126;2022-11-20T04:19:51;14.23;;;11.83;;
15624;SDS011;7912;51.376;6.126;2022-11-20T04:22:18;13.47;;;11.93;;
15624;SDS011;7912;51.376;6.126;2022-11-20T04:24:45;13.97;;;11.93;;
15624;SDS011;7912;51.376;6.126;2022-11-20T04:27:12;12.77;;;11.50;;
15624;SDS011;7912;51.376;6.126;2022-11-20T04:29:39;14.37;;;11.77;;
15624;SDS011;7912;51.376;6.126;2022-11-20T04:32:07;13.13;;;11.60;;
15624;SDS011;7912;51.376;6.126;2022-11-20T04:34:34;12.33;;;10.80;;
15624;SDS011;7912;51.376;6.126;2022-11-20T04:37:01;12.53;;;11.03;;
15624;SDS011;7912;51.376;6.126;2022-11-20T04:39:28;11.70;;;10.43;;
15624;SDS011;7912;51.376;6.126;2022-11-20T04:41:55;13.07;;;10.87;;
15624;SDS011;7912;51.376;6.126;2022-11-20T04:44:54;11.67;;;10.43;;
15624;SDS011;7912;51.376;6.126;2022-11-20T04:47:22;13.80;;;10.93;;
15624;SDS011;7912;51.376;6.126;2022-11-20T04:49:49;12.53;;;10.83;;
15624;SDS011;7912;51.376;6.126;2022-11-20T04:52:20;14.20;;;12.20;;
15624;SDS011;7912;51.376;6.126;2022-11-20T04:54:47;11.97;;;10.73;;
15624;SDS011;7912;51.376;6.126;2022-11-20T04:57:14;13.10;;;11.27;;
15624;SDS011;7912;51.376;6.126;2022-11-20T04:59:41;12.20;;;10.90;;
15624;SDS011;7912;51.376;6.126;2022-11-20T05:02:09;12.50;;;10.20;;
15624;SDS011;7912;51.376;6.126;2022-11-20T05:04:39;11.90;;;9.53;;
15624;SDS011;7912;51.376;6.126;2022-11-20T05:07:07;13.13;;;11.27;;
15624;SDS011;7912;51.376;6.126;2022-11-20T05:09:34;12.70;;;11.20;;
15624;SDS011;7912;51.376;6.126;2022-11-20T05:12:01;13.00;;;11.37;;
15624;SDS011;7912;51.376;6.126;2022-11-20T05:14:29;12.97;;;10.77;;
15624;SDS011;7912;51.376;6.126;2022-11-20T05:16:56;11.23;;;9.67;;
15624;SDS011;7912;51.376;6.126;2022-11-20T05:19:25;14.17;;;12.30;;
15624;SDS011;7912;51.376;6.126;2022-11-20T05:21:53;11.80;;;10.10;;
15624;SDS011;7912;51.376;6.126;2022-11-20T05:24:20;12.93;;;10.37;;
15624;SDS011;7912;51.376;6.126;2022-11-20T05:26:47;12.57;;;10.87;;
15624;SDS011;7912;51.376;6.126;2022-11-20T05:29:14;12.00;;;10.50;;
15624;SDS011;7912;51.376;6.126;2022-11-20T05:31:41;12.50;;;10.57;;
15624;SDS011;7912;51.376;6.126;2022-11-20T05:34:08;12.67;;;10.80;;
15624;SDS011;7912;51.376;6.126;2022-11-20T05:36:36;13.83;;;11.50;;
15624;SDS011;7912;51.376;6.126;2022-11-20T05:39:03;13.17;;;10.63;;
15624;SDS011;7912;51.376;6.126;2022-11-20T05:41:30;12.30;;;10.77;;
15624;SDS011;7912;51.376;6.126;2022-11-20T05:43:59;10.40;;;9.30;;
15624;SDS011;7912;51.376;6.126;2022-11-20T05:46:26;12.90;;;10.50;;
15624;SDS011;7912;51.376;6.126;2022-11-20T05:48:55;13.93;;;11.13;;
15624;SDS011;7912;51.376;6.126;2022-11-20T05:51:25;13.17;;;10.57;;
15624;SDS011;7912;51.376;6.126;2022-11-20T05:53:52;14.07;;;12.03;;
15624;SDS011;7912;51.376;6.126;2022-11-20T05:56:22;13.90;;;11.50;;
15624;SDS011;7912;51.376;6.126;2022-11-20T05:58:49;12.83;;;11.37;;
15624;SDS011;7912;51.376;6.126;2022-11-20T06:01:20;12.43;;;10.67;;
15624;SDS011;7912;51.376;6.126;2022-11-20T06:03:50;13.87;;;11.73;;
15624;SDS011;7912;51.376;6.126;2022-11-20T06:06:19;14.87;;;12.13;;
15624;SDS011;7912;51.376;6.126;2022-11-20T06:08:47;15.93;;;12.33;;
15624;SDS011;7912;51.376;6.126;2022-11-20T06:11:20;11.57;;;10.27;;
15624;SDS011;7912;51.376;6.126;2022-11-20T06:13:48;13.03;;;11.50;;
15624;SDS011;7912;51.376;6.126;2022-11-20T06:16:16;13.37;;;11.97;;
15624;SDS011;7912;51.376;6.126;2022-11-20T06:18:46;12.93;;;11.60;;
15624;SDS011;7912;51.376;6.126;2022-11-20T06:21:20;14.03;;;11.13;;
15624;SDS011;7912;51.376;6.126;2022-11-20T06:23:49;15.27;;;11.87;;
15624;SDS011;7912;51.376;6.126;2022-11-20T06:26:19;13.43;;;11.80;;
15624;SDS011;7912;51.376;6.126;2022-11-20T06:28:53;12.73;;;11.43;;
15624;SDS011;7912;51.376;6.126;2022-11-20T06:31:22;12.37;;;11.07;;
15624;SDS011;7912;51.376;6.126;2022-11-20T06:33:51;14.00;;;12.30;;
15624;SDS011;7912;51.376;6.126;2022-11-20T06:36:20;14.20;;;11.73;;
15624;SDS011;7912;51.376;6.126;2022-11-20T06:38:48;11.30;;;10.17;;
15624;SDS011;7912;51.376;6.126;2022-11-20T06:41:17;12.63;;;10.73;;
15624;SDS011;7912;51.376;6.126;2022-11-20T06:43:47;12.77;;;10.73;;
15624;SDS011;7912;51.376;6.126;2022-11-20T06:46:15;11.63;;;10.13;;
15624;SDS011;7912;51.376;6.126;2022-11-20T06:48:45;11.60;;;10.10;;
15624;SDS011;7912;51.376;6.126;2022-11-20T06:51:14;12.77;;;10.97;;
15624;SDS011;7912;51.376;6.126;2022-11-20T06:53:42;14.37;;;11.77;;
15624;SDS011;7912;51.376;6.126;2022-11-20T06:56:09;12.10;;;10.13;;
15624;SDS011;7912;51.376;6.126;2022-11-20T06:58:36;11.60;;;10.10;;
15624;SDS011;7912;51.376;6.126;2022-11-20T07:01:05;13.23;;;10.97;;
15624;SDS011;7912;51.376;6.126;2022-11-20T07:03:36;11.53;;;9.87;;
15624;SDS011;7912;51.376;6.126;2022-11-20T07:06:07;12.00;;;9.77;;
15624;SDS011;7912;51.376;6.126;2022-11-20T07:08:35;12.10;;;10.47;;
15624;SDS011;7912;51.376;6.126;2022-11-20T07:11:04;12.47;;;10.97;;
15624;SDS011;7912;51.376;6.126;2022-11-20T07:13:35;13.77;;;10.93;;
15624;SDS011;7912;51.376;6.126;2022-11-20T07:16:04;11.37;;;10.17;;
15624;SDS011;7912;51.376;6.126;2022-11-20T07:18:34;11.93;;;10.47;;
15624;SDS011;7912;51.376;6.126;2022-11-20T07:24:07;11.83;;;10.00;;
15624;SDS011;7912;51.376;6.126;2022-11-20T07:26:34;12.90;;;11.33;;
15624;SDS011;7912;51.376;6.126;2022-11-20T07:29:01;11.80;;;10.57;;
15624;SDS011;7912;51.376;6.126;2022-11-20T07:31:29;13.23;;;11.23;;
15624;SDS011;7912;51.376;6.126;2022-11-20T07:33:57;11.50;;;10.10;;
15624;SDS011;7912;51.376;6.126;2022-11-20T07:36:24;12.60;;;11.30;;
15624;SDS011;7912;51.376;6.126;2022-11-20T07:38:51;12.63;;;10.63;;
15624;SDS011;7912;51.376;6.126;2022-11-20T07:41:19;11.80;;;10.47;;
15624;SDS011;7912;51.376;6.126;2022-11-20T07:43:49;12.53;;;11.23;;
15624;SDS011;7912;51.376;6.126;2022-11-20T07:46:16;12.60;;;10.80;;
15624;SDS011;7912;51.376;6.126;2022-11-20T07:48:44;14.00;;;11.70;;
15624;SDS011;7912;51.376;6.126;2022-11-20T07:51:11;13.50;;;11.13;;
15624;SDS011;7912;51.376;6.126;2022-11-20T07:53:38;13.23;;;11.43;;
15624;SDS011;7912;51.376;6.126;2022-11-20T07:56:05;14.27;;;12.00;;
15624;SDS011;7912;51.376;6.126;2022-11-20T07:58:35;14.23;;;11.93;;
15624;SDS011;7912;51.376;6.126;2022-11-20T08:01:03;12.67;;;11.30;;
15624;SDS011;7912;51.376;6.126;2022-11-20T08:03:33;12.67;;;11.13;;
15624;SDS011;7912;51.376;6.126;2022-11-20T08:06:01;12.50;;;11.13;;
15624;SDS011;7912;51.376;6.126;2022-11-20T08:08:28;12.07;;;10.73;;
15624;SDS011;7912;51.376;6.126;2022-11-20T08:10:59;13.30;;;11.60;;
15624;SDS011;7912;51.376;6.126;2022-11-20T08:13:45;11.80;;;10.60;;
15624;SDS011;7912;51.376;6.126;2022-11-20T08:16:30;14.03;;;11.77;;
15624;SDS011;7912;51.376;6.126;2022-11-20T08:18:58;12.83;;;10.90;;
15624;SDS011;7912;51.376;6.126;2022-11-20T08:21:25;12.47;;;11.17;;
15624;SDS011;7912;51.376;6.126;2022-11-20T08:23:53;13.40;;;11.93;;
15624;SDS011;7912;51.376;6.126;2022-11-20T08:26:22;14.03;;;12.57;;
15624;SDS011;7912;51.376;6.126;2022-11-20T08:28:54;14.87;;;12.67;;
15624;SDS011;7912;51.376;6.126;2022-11-20T08:31:34;15.40;;;12.30;;
15624;SDS011;7912;51.376;6.126;2022-11-20T08:34:07;16.73;;;12.73;;
15624;SDS011;7912;51.376;6.126;2022-11-20T08:36:44;16.20;;;12.60;;
15624;SDS011;7912;51.376;6.126;2022-11-20T08:39:13;15.30;;;12.43;;
15624;SDS011;7912;51.376;6.126;2022-11-20T08:41:45;14.90;;;12.37;;
15624;SDS011;7912;51.376;6.126;2022-11-20T08:44:13;14.20;;;12.03;;
15624;SDS011;7912;51.376;6.126;2022-11-20T08:46:46;15.10;;;13.27;;
15624;SDS011;7912;51.376;6.126;2022-11-20T08:49:23;15.80;;;13.07;;
15624;SDS011;7912;51.376;6.126;2022-11-20T08:51:51;15.07;;;13.40;;
15624;SDS011;7912;51.376;6.126;2022-11-20T08:54:22;15.63;;;13.00;;
15624;SDS011;7912;51.376;6.126;2022-11-20T08:56:51;16.40;;;13.40;;
15624;SDS011;7912;51.376;6.126;2022-11-20T08:59:23;15.60;;;12.77;;
15624;SDS011;7912;51.376;6.126;2022-11-20T09:02:13;16.37;;;13.90;;
15624;SDS011;7912;51.376;6.126;2022-11-20T09:04:44;15.47;;;13.00;;
15624;SDS011;7912;51.376;6.126;2022-11-20T09:07:14;15.80;;;13.00;;
15624;SDS011;7912;51.376;6.126;2022-11-20T09:09:43;17.63;;;14.00;;
15624;SDS011;7912;51.376;6.126;2022-11-20T09:12:11;17.27;;;14.23;;
15624;SDS011;7912;51.376;6.126;2022-11-20T09:14:39;17.00;;;14.40;;
15624;SDS011;7912;51.376;6.126;2022-11-20T09:17:10;19.47;;;14.40;;
15624;SDS011;7912;51.376;6.126;2022-11-20T09:19:40;18.17;;;14.83;;
15624;SDS011;7912;51.376;6.126;2022-11-20T09:22:13;17.03;;;14.20;;
15624;SDS011;7912;51.376;6.126;2022-11-20T09:24:41;15.87;;;14.10;;
15624;SDS011;7912;51.376;6.126;2022-11-20T09:27:12;17.80;;;14.27;;
15624;SDS011;7912;51.376;6.126;2022-11-20T09:33:50;19.07;;;14.33;;
15624;SDS011;7912;51.376;6.126;2022-11-20T09:36:19;20.43;;;15.77;;
15624;SDS011;7912;51.376;6.126;2022-11-20T09:38:47;22.27;;;14.73;;
15624;SDS011;7912;51.376;6.126;2022-11-20T09:50:25;21.40;;;14.57;;
15624;SDS011;7912;51.376;6.126;2022-11-20T09:56:29;29.43;;;18.33;;
15624;SDS011;7912;51.376;6.126;2022-11-20T09:59:02;28.90;;;18.60;;
15624;SDS011;7912;51.376;6.126;2022-11-20T10:01:45;34.10;;;19.70;;
15624;SDS011;7912;51.376;6.126;2022-11-20T10:04:16;38.50;;;21.13;;
15624;SDS011;7912;51.376;6.126;2022-11-20T10:10:02;41.33;;;22.23;;
15624;SDS011;7912;51.376;6.126;2022-11-20T10:12:52;41.50;;;23.40;;
15624;SDS011;7912;51.376;6.126;2022-11-20T10:25:19;40.27;;;22.43;;
15624;SDS011;7912;51.376;6.126;2022-11-20T10:30:59;41.10;;;22.90;;
15624;SDS011;7912;51.376;6.126;2022-11-20T10:33:38;41.73;;;23.30;;
15624;SDS011;7912;51.376;6.126;2022-11-20T10:36:31;37.67;;;23.00;;
15624;SDS011;7912;51.376;6.126;2022-11-20T10:39:07;36.83;;;22.53;;
15624;SDS011;7912;51.376;6.126;2022-11-20T10:41:50;40.63;;;23.07;;
15624;SDS011;7912;51.376;6.126;2022-11-20T10:44:27;37.27;;;21.77;;
15624;SDS011;7912;51.376;6.126;2022-11-20T10:47:21;33.63;;;21.50;;
15624;SDS011;7912;51.376;6.126;2022-11-20T10:49:53;35.37;;;22.33;;
15624;SDS011;7912;51.376;6.126;2022-11-20T10:55:39;33.27;;;22.00;;
15624;SDS011;7912;51.376;6.126;2022-11-20T10:58:27;31.73;;;20.17;;
15624;SDS011;7912;51.376;6.126;2022-11-20T11:01:21;33.83;;;20.13;;
15624;SDS011;7912;51.376;6.126;2022-11-20T11:03:56;35.80;;;20.63;;
15624;SDS011;7912;51.376;6.126;2022-11-20T11:06:33;31.47;;;20.17;;
15624;SDS011;7912;51.376;6.126;2022-11-20T11:09:28;32.57;;;19.07;;
15624;SDS011;7912;51.376;6.126;2022-11-20T11:12:07;32.80;;;20.53;;
15624;SDS011;7912;51.376;6.126;2022-11-20T11:14:45;36.03;;;21.50;;
15624;SDS011;7912;51.376;6.126;2022-11-20T11:17:32;32.27;;;20.57;;
15624;SDS011;7912;51.376;6.126;2022-11-20T11:25:27;35.17;;;21.07;;
15624;SDS011;7912;51.376;6.126;2022-11-20T11:30:44;36.53;;;21.30;;
15624;SDS011;7912;51.376;6.126;2022-11-20T11:33:19;34.63;;;21.13;;
15624;SDS011;7912;51.376;6.126;2022-11-20T11:35:52;33.37;;;21.03;;
15624;SDS011;7912;51.376;6.126;2022-11-20T11:38:41;34.10;;;22.00;;
15624;SDS011;7912;51.376;6.126;2022-11-20T11:41:19;33.37;;;20.93;;
15624;SDS011;7912;51.376;6.126;2022-11-20T11:43:55;36.40;;;21.80;;
15624;SDS011;7912;51.376;6.126;2022-11-20T11:47:05;33.20;;;20.73;;
15624;SDS011;7912;51.376;6.126;2022-11-20T11:52:43;34.47;;;21.77;;
15624;SDS011;7912;51.376;6.126;2022-11-20T11:55:28;33.97;;;21.33;;
15624;SDS011;7912;51.376;6.126;2022-11-20T12:01:37;31.43;;;19.73;;
15624;SDS011;7912;51.376;6.126;2022-11-20T12:07:20;31.90;;;20.77;;
15624;SDS011;7912;51.376;6.126;2022-11-20T12:10:21;28.57;;;19.57;;
15624;SDS011;7912;51.376;6.126;2022-11-20T12:13:04;29.80;;;20.57;;
15624;SDS011;7912;51.376;6.126;2022-11-20T12:15:56;30.73;;;20.73;;
15624;SDS011;7912;51.376;6.126;2022-11-20T12:18:25;31.37;;;20.97;;
15624;SDS011;7912;51.376;6.126;2022-11-20T12:23:56;27.80;;;19.53;;
15624;SDS011;7912;51.376;6.126;2022-11-20T12:30:16;24.90;;;17.63;;
15624;SDS011;7912;51.376;6.126;2022-11-20T12:39:02;25.90;;;19.07;;
15624;SDS011;7912;51.376;6.126;2022-11-20T12:57:13;24.40;;;19.40;;
15624;SDS011;7912;51.376;6.126;2022-11-20T13:00:23;26.30;;;19.83;;
15624;SDS011;7912;51.376;6.126;2022-11-20T13:08:49;28.33;;;20.17;;
15624;SDS011;7912;51.376;6.126;2022-11-20T13:11:27;29.63;;;20.17;;
15624;SDS011;7912;51.376;6.126;2022-11-20T13:17:13;27.27;;;19.63;;
15624;SDS011;7912;51.376;6.126;2022-11-20T13:19:55;26.67;;;18.97;;
15624;SDS011;7912;51.376;6.126;2022-11-20T13:22:29;27.30;;;19.60;;
15624;SDS011;7912;51.376;6.126;2022-11-20T13:25:23;28.27;;;20.93;;
15624;SDS011;7912;51.376;6.126;2022-11-20T13:27:50;27.03;;;22.13;;
15624;SDS011;7912;51.376;6.126;2022-11-20T13:30:19;26.97;;;21.30;;
15624;SDS011;7912;51.376;6.126;2022-11-20T13:33:08;25.40;;;18.80;;
15624;SDS011;7912;51.376;6.126;2022-11-20T13:35:56;27.87;;;18.87;;
15624;SDS011;7912;51.376;6.126;2022-11-20T13:38:43;26.17;;;17.87;;
15624;SDS011;7912;51.376;6.126;2022-11-20T13:44:13;26.80;;;18.30;;
15624;SDS011;7912;51.376;6.126;2022-11-20T13:46:54;25.70;;;18.57;;
15624;SDS011;7912;51.376;6.126;2022-11-20T13:49:24;27.33;;;18.70;;
15624;SDS011;7912;51.376;6.126;2022-11-20T14:00:15;28.00;;;20.50;;
15624;SDS011;7912;51.376;6.126;2022-11-20T14:05:37;27.53;;;20.10;;
15624;SDS011;7912;51.376;6.126;2022-11-20T14:08:20;24.93;;;18.70;;
15624;SDS011;7912;51.376;6.126;2022-11-20T14:16:23;25.23;;;18.10;;
15624;SDS011;7912;51.376;6.126;2022-11-20T14:18:54;26.13;;;19.07;;
15624;SDS011;7912;51.376;6.126;2022-11-20T14:21:55;25.60;;;19.03;;
15624;SDS011;7912;51.376;6.126;2022-11-20T14:24:37;27.33;;;18.33;;
15624;SDS011;7912;51.376;6.126;2022-11-20T14:27:20;25.30;;;19.13;;
15624;SDS011;7912;51.376;6.126;2022-11-20T14:29:50;26.43;;;18.43;;
15624;SDS011;7912;51.376;6.126;2022-11-20T14:32:22;28.77;;;20.57;;
15624;SDS011;7912;51.376;6.126;2022-11-20T14:35:02;25.60;;;19.10;;
15624;SDS011;7912;51.376;6.126;2022-11-20T14:37:39;27.87;;;19.10;;
15624;SDS011;7912;51.376;6.126;2022-11-20T14:40:41;26.07;;;19.67;;
15624;SDS011;7912;51.376;6.126;2022-11-20T14:43:16;27.20;;;19.00;;
15624;SDS011;7912;51.376;6.126;2022-11-20T14:46:08;25.33;;;19.40;;
15624;SDS011;7912;51.376;6.126;2022-11-20T14:51:31;27.17;;;19.37;;
15624;SDS011;7912;51.376;6.126;2022-11-20T14:54:17;28.30;;;19.73;;
15624;SDS011;7912;51.376;6.126;2022-11-20T14:56:53;27.73;;;20.80;;
15624;SDS011;7912;51.376;6.126;2022-11-20T14:59:26;28.33;;;20.43;;
15624;SDS011;7912;51.376;6.126;2022-11-20T15:04:43;33.27;;;22.30;;
15624;SDS011;7912;51.376;6.126;2022-11-20T15:07:34;28.40;;;20.57;;
15624;SDS011;7912;51.376;6.126;2022-11-20T15:10:07;27.17;;;18.07;;
15624;SDS011;7912;51.376;6.126;2022-11-20T15:12:52;27.43;;;19.13;;
15624;SDS011;7912;51.376;6.126;2022-11-20T15:15:25;24.83;;;18.57;;
15624;SDS011;7912;51.376;6.126;2022-11-20T15:18:10;30.00;;;20.03;;
15624;SDS011;7912;51.376;6.126;2022-11-20T15:20:55;28.40;;;19.90;;
15624;SDS011;7912;51.376;6.126;2022-11-20T15:23:25;30.87;;;20.90;;
15624;SDS011;7912;51.376;6.126;2022-11-20T15:25:54;28.77;;;20.63;;
15624;SDS011;7912;51.376;6.126;2022-11-20T15:31:18;25.07;;;19.20;;
15624;SDS011;7912;51.376;6.126;2022-11-20T15:33:48;26.10;;;20.10;;
15624;SDS011;7912;51.376;6.126;2022-11-20T15:36:16;27.07;;;19.73;;
15624;SDS011;7912;51.376;6.126;2022-11-20T15:38:46;25.03;;;18.70;;
15624;SDS011;7912;51.376;6.126;2022-11-20T15:41:13;27.23;;;20.53;;
15624;SDS011;7912;51.376;6.126;2022-11-20T15:43:41;28.27;;;21.07;;
15624;SDS011;7912;51.376;6.126;2022-11-20T15:46:12;29.93;;;21.33;;
15624;SDS011;7912;51.376;6.126;2022-11-20T15:48:48;30.07;;;19.97;;
15624;SDS011;7912;51.376;6.126;2022-11-20T15:54:08;32.47;;;23.97;;
15624;SDS011;7912;51.376;6.126;2022-11-20T15:56:42;31.10;;;23.00;;
15624;SDS011;7912;51.376;6.126;2022-11-20T15:59:12;34.53;;;24.97;;
15624;SDS011;7912;51.376;6.126;2022-11-20T16:01:41;30.67;;;22.17;;
15624;SDS011;7912;51.376;6.126;2022-11-20T16:04:10;28.13;;;19.60;;
15624;SDS011;7912;51.376;6.126;2022-11-20T16:06:40;29.93;;;20.33;;
15624;SDS011;7912;51.376;6.126;2022-11-20T16:09:08;29.23;;;20.60;;
15624;SDS011;7912;51.376;6.126;2022-11-20T16:11:36;27.83;;;20.27;;
15624;SDS011;7912;51.376;6.126;2022-11-20T16:14:04;29.80;;;21.63;;
15624;SDS011;7912;51.376;6.126;2022-11-20T16:16:52;29.97;;;19.47;;
15624;SDS011;7912;51.376;6.126;2022-11-20T16:19:20;29.57;;;20.07;;
15624;SDS011;7912;51.376;6.126;2022-11-20T16:21:47;26.73;;;20.67;;
15624;SDS011;7912;51.376;6.126;2022-11-20T16:24:15;28.60;;;20.20;;
15624;SDS011;7912;51.376;6.126;2022-11-20T16:26:42;26.50;;;19.73;;
15624;SDS011;7912;51.376;6.126;2022-11-20T16:29:09;25.13;;;18.80;;
15624;SDS011;7912;51.376;6.126;2022-11-20T16:31:37;26.67;;;19.57;;
15624;SDS011;7912;51.376;6.126;2022-11-20T16:34:06;28.23;;;19.37;;
15624;SDS011;7912;51.376;6.126;2022-11-20T16:36:48;24.50;;;17.40;;
15624;SDS011;7912;51.376;6.126;2022-11-20T16:39:15;25.80;;;18.57;;
15624;SDS011;7912;51.376;6.126;2022-11-20T16:41:49;24.40;;;18.03;;
15624;SDS011;7912;51.376;6.126;2022-11-20T16:44:16;25.20;;;18.20;;
15624;SDS011;7912;51.376;6.126;2022-11-20T16:46:43;24.23;;;17.53;;
15624;SDS011;7912;51.376;6.126;2022-11-20T16:49:16;22.43;;;16.23;;
15624;SDS011;7912;51.376;6.126;2022-11-20T16:51:43;23.30;;;16.93;;
15624;SDS011;7912;51.376;6.126;2022-11-20T16:54:13;24.23;;;17.10;;
15624;SDS011;7912;51.376;6.126;2022-11-20T16:56:46;23.37;;;16.73;;
15624;SDS011;7912;51.376;6.126;2022-11-20T16:59:18;22.17;;;15.70;;
15624;SDS011;7912;51.376;6.126;2022-11-20T17:01:49;20.90;;;16.03;;
15624;SDS011;7912;51.376;6.126;2022-11-20T17:04:16;21.13;;;15.63;;
15624;SDS011;7912;51.376;6.126;2022-11-20T17:06:43;19.57;;;14.90;;
15624;SDS011;7912;51.376;6.126;2022-11-20T17:09:11;19.50;;;14.70;;
15624;SDS011;7912;51.376;6.126;2022-11-20T17:11:44;19.80;;;14.40;;
15624;SDS011;7912;51.376;6.126;2022-11-20T17:14:14;19.87;;;14.93;;
15624;SDS011;7912;51.376;6.126;2022-11-20T17:16:45;18.97;;;14.80;;
15624;SDS011;7912;51.376;6.126;2022-11-20T17:19:13;15.80;;;13.40;;
15624;SDS011;7912;51.376;6.126;2022-11-20T17:21:41;17.00;;;13.43;;
15624;SDS011;7912;51.376;6.126;2022-11-20T17:24:10;18.77;;;13.23;;